Time;durP1;ratioP1;P1;durP2;ratioP2;P2;SDS_P1;SDS_P2;PMS_P1;PMS_P2;Temp;Humidity;BMP_temperature;BMP_pressure;BME280_temperature;BME280_humidity;BME280_pressure;Samples;Min_cycle;Max_cycle;Signal;HPM_P1;HPM_P2
2022/11/17 00:00:25;;;;;;;1.23;0.40;;;14.90;74.40;;;;;;2332554;54;21504;-72
2022/11/17 00:02:52;;;;;;;1.17;0.40;;;14.90;74.30;;;;;;2442829;53;21449;-73
2022/11/17 00:05:19;;;;;;;0.25;0.20;;;15.00;74.30;;;;;;2332295;54;21050;-73
2022/11/17 00:07:45;;;;;;;0.85;0.37;;;15.00;74.90;;;;;;2577399;53;21322;-72
2022/11/17 00:10:12;;;;;;;1.02;0.30;;;15.00;74.10;;;;;;2347559;53;21425;-75
2022/11/17 00:15:23;;;;;;;1.12;0.30;;;15.10;74.00;;;;;;2332273;54;20982;-71
2022/11/17 00:21:17;;;;;;;0.37;0.30;;;15.20;74.10;;;;;;2549324;52;21495;-73
2022/11/17 00:23:46;;;;;;;0.80;0.30;;;15.20;74.00;;;;;;2332686;54;21459;-73
2022/11/17 00:26:16;;;;;;;0.57;0.30;;;15.30;74.00;;;;;;2578186;53;21533;-73
2022/11/17 00:28:43;;;;;;;0.65;0.30;;;15.30;73.60;;;;;;2578136;53;20961;-73
2022/11/17 00:34:07;;;;;;;1.25;0.40;;;15.30;73.70;;;;;;2369858;53;21013;-72
2022/11/17 00:36:37;;;;;;;1.17;0.40;;;15.40;73.80;;;;;;2430062;53;21265;-73
2022/11/17 00:39:04;;;;;;;1.33;0.40;;;15.30;73.50;;;;;;2578204;53;20942;-73
2022/11/17 00:41:31;;;;;;;0.93;0.40;;;15.40;73.50;;;;;;2354957;53;21615;-73
2022/11/17 00:43:57;;;;;;;0.57;0.30;;;15.40;73.50;;;;;;2333011;54;21069;-73
2022/11/17 00:46:24;;;;;;;0.90;0.40;;;15.40;73.50;;;;;;2332956;54;21413;-73
2022/11/17 00:48:50;;;;;;;1.08;0.30;;;15.40;73.40;;;;;;2332692;54;21251;-73
2022/11/17 00:51:16;;;;;;;0.47;0.25;;;15.50;73.60;;;;;;2578169;53;21069;-73
2022/11/17 00:56:14;;;;;;;1.50;0.50;;;15.50;73.60;;;;;;2431174;53;23207;-72
2022/11/17 00:58:41;;;;;;;0.55;0.30;;;15.50;73.30;;;;;;2319146;54;21596;-73
2022/11/17 01:01:07;;;;;;;1.00;0.30;;;15.50;73.20;;;;;;2561290;53;21488;-73
2022/11/17 01:03:34;;;;;;;0.28;0.20;;;15.60;73.30;;;;;;2324231;54;21428;-71
2022/11/17 01:06:14;;;;;;;1.10;0.37;;;15.60;73.20;;;;;;2308996;53;20925;-72
2022/11/17 01:08:40;;;;;;;1.40;0.30;;;15.60;72.70;;;;;;2317789;54;20984;-73
2022/11/17 01:11:12;;;;;;;0.40;0.20;;;15.60;73.20;;;;;;2317925;54;21112;-75
2022/11/17 01:13:38;;;;;;;0.75;0.22;;;15.70;72.80;;;;;;2317995;55;20924;-73
2022/11/17 01:16:07;;;;;;;0.65;0.30;;;15.70;73.10;;;;;;2388401;53;21474;-72
2022/11/17 01:18:33;;;;;;;0.82;0.40;;;15.70;72.80;;;;;;2317746;55;21756;-72
2022/11/17 01:21:04;;;;;;;0.95;0.35;;;15.70;73.20;;;;;;2516173;52;20991;-74
2022/11/17 01:23:31;;;;;;;0.47;0.30;;;15.70;72.40;;;;;;2298366;54;21307;-73
2022/11/17 01:26:04;;;;;;;0.62;0.30;;;15.70;72.70;;;;;;2567897;53;20929;-73
2022/11/17 01:28:30;;;;;;;0.68;0.28;;;15.70;72.40;;;;;;2331950;54;20951;-73
2022/11/17 01:31:00;;;;;;;1.10;0.20;;;15.70;72.80;;;;;;2351722;54;21562;-72
2022/11/17 01:33:27;;;;;;;0.80;0.30;;;15.70;72.40;;;;;;2582014;52;20941;-72
2022/11/17 01:35:54;;;;;;;0.22;0.20;;;15.70;72.60;;;;;;2324544;53;20956;-72
2022/11/17 01:38:21;;;;;;;1.20;0.30;;;15.70;72.70;;;;;;2324464;53;21076;-71
2022/11/17 01:40:47;;;;;;;0.95;0.25;;;15.70;73.10;;;;;;2321792;53;21212;-74
2022/11/17 01:43:13;;;;;;;0.62;0.30;;;15.70;72.70;;;;;;2325680;53;20936;-72
2022/11/17 01:45:40;;;;;;;0.70;0.20;;;15.70;72.60;;;;;;2326308;55;20962;-74
2022/11/17 01:48:06;;;;;;;0.70;0.30;;;15.70;72.70;;;;;;2323960;54;21473;-72
2022/11/17 01:50:37;;;;;;;1.02;0.30;;;15.70;72.80;;;;;;2324348;54;21221;-72
2022/11/17 01:53:07;;;;;;;0.68;0.30;;;15.70;72.70;;;;;;2423658;53;21085;-72
2022/11/17 01:55:36;;;;;;;1.70;0.35;;;15.70;72.50;;;;;;2337568;54;21435;-73
2022/11/17 01:58:48;;;;;;;0.80;0.20;;;15.70;72.50;;;;;;2356798;53;21553;-75
2022/11/17 02:01:14;;;;;;;2.15;0.30;;;15.70;70.90;;;;;;2607292;52;20945;-75
2022/11/17 02:03:41;;;;;;;1.00;0.30;;;15.70;72.70;;;;;;2607835;52;21009;-73
2022/11/17 02:06:12;;;;;;;0.20;0.20;;;15.70;72.60;;;;;;2356786;53;21009;-74
2022/11/17 02:08:40;;;;;;;0.40;0.22;;;15.70;72.50;;;;;;2357002;53;20960;-74
2022/11/17 02:11:10;;;;;;;0.37;0.22;;;15.70;72.60;;;;;;2350152;53;21029;-72
2022/11/17 02:13:37;;;;;;;1.50;0.35;;;15.70;72.40;;;;;;2357629;53;20965;-72
2022/11/17 02:16:05;;;;;;;1.98;0.20;;;15.70;72.60;;;;;;2355616;53;20915;-73
2022/11/17 02:18:31;;;;;;;1.62;0.40;;;15.80;72.70;;;;;;2350658;54;21458;-72
2022/11/17 02:21:39;;;;;;;1.52;0.50;;;15.70;72.60;;;;;;2356209;53;21435;-72
2022/11/17 02:26:59;;;;;;;0.52;0.28;;;15.80;71.70;;;;;;2360033;53;21476;-73
2022/11/17 02:29:36;;;;;;;0.40;0.30;;;15.70;70.80;;;;;;2443893;52;20919;-72
2022/11/17 02:34:51;;;;;;;0.90;0.30;;;15.80;72.20;;;;;;2355858;53;21488;-72
2022/11/17 02:39:13;;;;;;;0.77;0.30;;;15.80;71.90;;;;;;2355842;53;20930;-73
2022/11/17 02:41:45;;;;;;;2.05;0.40;;;15.90;71.20;;;;;;2440925;52;21057;-72
2022/11/17 02:45:49;;;;;;;1.02;0.40;;;15.90;72.60;;;;;;2355478;53;21001;-74
2022/11/17 02:48:36;;;;;;;1.52;0.40;;;15.90;71.00;;;;;;2355723;53;21463;-74
2022/11/17 02:51:03;;;;;;;0.82;0.30;;;15.90;72.70;;;;;;2328876;53;20941;-72
2022/11/17 02:53:29;;;;;;;1.35;0.40;;;15.80;72.70;;;;;;2531103;52;21564;-73
2022/11/17 02:55:58;;;;;;;0.80;0.30;;;15.80;72.80;;;;;;2328323;53;21458;-72
2022/11/17 02:58:24;;;;;;;0.45;0.30;;;15.80;72.60;;;;;;2328514;53;21021;-72
2022/11/17 03:01:06;;;;;;;2.12;0.30;;;15.80;72.80;;;;;;2328454;53;21076;-74
2022/11/17 03:07:16;;;;;;;1.05;0.32;;;15.80;71.90;;;;;;2578939;52;21576;-72
2022/11/17 03:09:54;;;;;;;1.52;0.20;;;15.80;71.90;;;;;;2337307;53;20979;-74
2022/11/17 03:12:33;;;;;;;0.75;0.20;;;15.90;72.80;;;;;;2360046;53;21466;-73
2022/11/17 03:15:21;;;;;;;0.70;0.30;;;15.90;72.60;;;;;;2360450;53;21436;-72
2022/11/17 03:18:16;;;;;;;1.48;0.40;;;15.90;73.00;;;;;;2433547;52;21747;-74
2022/11/17 03:23:33;;;;;;;0.40;0.22;;;15.90;72.70;;;;;;2360593;53;21042;-72
2022/11/17 03:25:59;;;;;;;0.40;0.20;;;15.90;72.60;;;;;;2361007;53;21550;-73
2022/11/17 03:28:27;;;;;;;0.30;0.20;;;16.00;73.80;;;;;;2361034;53;20998;-72
2022/11/17 03:30:53;;;;;;;1.60;0.28;;;16.10;73.80;;;;;;2550321;52;21520;-72
2022/11/17 03:33:20;;;;;;;1.00;0.25;;;16.00;73.80;;;;;;2390710;52;21355;-74
2022/11/17 03:36:06;;;;;;;0.82;0.30;;;16.00;73.80;;;;;;2332812;53;21307;-73
2022/11/17 03:38:34;;;;;;;1.55;0.13;;;16.10;73.70;;;;;;2583834;52;21363;-73
2022/11/17 03:41:01;;;;;;;0.65;0.25;;;16.10;73.80;;;;;;2590345;52;21514;-71
2022/11/17 03:43:28;;;;;;;1.10;0.30;;;16.10;73.90;;;;;;2360729;53;20950;-75
2022/11/17 03:45:55;;;;;;;1.23;0.45;;;16.20;74.00;;;;;;2600283;52;21462;-75
2022/11/17 03:48:27;;;;;;;0.60;0.20;;;16.20;73.90;;;;;;2557285;52;21069;-72
2022/11/17 03:50:55;;;;;;;;;;;16.20;73.80;;;;;;2351591;53;20949;-72
2022/11/17 03:53:21;;;;;;;0.77;0.28;;;16.30;72.20;;;;;;2331574;54;20410;-74
2022/11/17 04:02:43;;;;;;;0.30;0.20;;;16.30;73.80;;;;;;2455592;52;20929;-72
2022/11/17 04:05:09;;;;;;;0.80;0.10;;;16.30;73.30;;;;;;2337215;53;21448;-75
2022/11/17 04:07:39;;;;;;;0.35;0.25;;;16.40;73.80;;;;;;2332827;53;21482;-73
2022/11/17 04:10:06;;;;;;;0.85;0.30;;;16.40;73.70;;;;;;2577890;52;20972;-72
2022/11/17 04:18:02;;;;;;;1.17;0.37;;;16.40;73.70;;;;;;2514498;52;21511;-72
2022/11/17 04:20:34;;;;;;;0.82;0.40;;;16.40;73.70;;;;;;2360302;53;20926;-75
2022/11/17 04:23:12;;;;;;;0.80;0.30;;;16.40;73.70;;;;;;2361018;53;21459;-72
2022/11/17 04:28:39;;;;;;;0.55;0.30;;;16.40;72.90;;;;;;2610259;52;20930;-72
2022/11/17 04:31:15;;;;;;;0.50;0.13;;;16.40;73.60;;;;;;2360911;53;21268;-72
2022/11/17 04:33:45;;;;;;;0.17;0.10;;;16.40;72.80;;;;;;2360607;53;21046;-75
2022/11/17 04:36:13;;;;;;;0.20;0.13;;;16.40;73.30;;;;;;2548696;52;20959;-75
2022/11/17 04:38:41;;;;;;;0.68;0.30;;;16.50;73.60;;;;;;2360569;53;21101;-72
2022/11/17 04:43:53;;;;;;;1.15;0.30;;;16.50;73.70;;;;;;2360129;53;21925;-75
2022/11/17 04:46:19;;;;;;;2.80;0.40;;;16.50;73.70;;;;;;2360394;53;21228;-72
2022/11/17 04:48:46;;;;;;;1.02;0.40;;;16.50;73.60;;;;;;2360601;53;20915;-72
2022/11/17 04:51:13;;;;;;;1.25;0.40;;;16.50;73.60;;;;;;2360279;53;21178;-73
2022/11/17 04:53:39;;;;;;;0.80;0.30;;;16.50;73.50;;;;;;2360839;53;20918;-72
2022/11/17 04:56:06;;;;;;;1.52;0.30;;;16.50;73.60;;;;;;2612178;52;20998;-72
2022/11/17 04:58:34;;;;;;;1.50;0.30;;;16.50;73.40;;;;;;2360041;53;20918;-75
2022/11/17 05:01:11;;;;;;;2.58;0.40;;;16.50;73.50;;;;;;2360602;53;20939;-74
2022/11/17 05:03:44;;;;;;;0.73;0.30;;;16.50;73.40;;;;;;2360591;53;21464;-73
2022/11/17 05:06:22;;;;;;;1.10;0.40;;;16.50;72.80;;;;;;2360337;53;21135;-72
2022/11/17 05:08:48;;;;;;;1.73;0.30;;;16.50;73.20;;;;;;2434298;52;21246;-74
2022/11/17 05:13:59;;;;;;;0.90;0.20;;;16.60;73.30;;;;;;2360630;53;21486;-74
2022/11/17 05:19:14;;;;;;;1.17;0.35;;;16.60;73.40;;;;;;2433179;52;20927;-74
2022/11/17 05:21:41;;;;;;;1.52;0.37;;;16.60;73.00;;;;;;2359896;53;20910;-71
2022/11/17 05:24:08;;;;;;;1.30;0.50;;;16.50;73.10;;;;;;2360282;53;20966;-73
2022/11/17 05:26:35;;;;;;;1.35;0.30;;;16.50;73.10;;;;;;2360504;53;21558;-74
2022/11/17 05:29:02;;;;;;;0.65;0.30;;;16.50;73.10;;;;;;2360697;53;21221;-72
2022/11/17 05:31:29;;;;;;;1.80;0.40;;;16.50;73.10;;;;;;2360755;53;21520;-72
2022/11/17 05:33:55;;;;;;;1.15;0.32;;;16.50;73.10;;;;;;2360666;53;21518;-72
2022/11/17 05:36:22;;;;;;;0.88;0.35;;;16.50;73.20;;;;;;2360642;53;21490;-71
2022/11/17 05:38:48;;;;;;;0.80;0.40;;;16.50;73.20;;;;;;2360090;53;21300;-72
2022/11/17 05:41:15;;;;;;;1.65;0.40;;;16.50;73.30;;;;;;2360578;53;21319;-71
2022/11/17 05:43:42;;;;;;;0.70;0.35;;;16.50;73.30;;;;;;2359805;53;21470;-72
2022/11/17 05:46:08;;;;;;;1.60;0.37;;;16.50;73.40;;;;;;2611694;52;20911;-75
2022/11/17 05:48:34;;;;;;;1.60;0.50;;;16.50;73.50;;;;;;2612174;52;21419;-72
2022/11/17 05:51:01;;;;;;;1.50;0.40;;;16.50;73.50;;;;;;2358674;53;21002;-72
2022/11/17 05:53:27;;;;;;;1.55;0.50;;;16.50;73.50;;;;;;2353342;54;21843;-74
2022/11/17 05:56:13;;;;;;;2.37;0.50;;;16.50;73.50;;;;;;2360317;53;21384;-71
2022/11/17 05:58:42;;;;;;;1.02;0.30;;;16.50;72.70;;;;;;2360957;53;20978;-75
2022/11/17 06:01:09;;;;;;;1.50;0.50;;;16.50;73.50;;;;;;2361042;53;20941;-73
2022/11/17 06:03:41;;;;;;;2.60;0.50;;;16.50;73.50;;;;;;2361306;53;21377;-72
2022/11/17 06:06:10;;;;;;;1.00;0.40;;;16.50;73.20;;;;;;2612916;52;20939;-73
2022/11/17 06:08:37;;;;;;;1.65;0.50;;;16.50;73.50;;;;;;2611792;52;21467;-74
2022/11/17 06:11:04;;;;;;;1.33;0.47;;;16.50;73.50;;;;;;2360627;53;21005;-74
2022/11/17 06:13:30;;;;;;;1.37;0.43;;;16.50;73.50;;;;;;2360000;53;20970;-71
2022/11/17 06:15:57;;;;;;;1.33;0.40;;;16.60;73.60;;;;;;2502873;52;21839;-74
2022/11/17 06:18:32;;;;;;;2.00;0.40;;;16.60;73.60;;;;;;2360505;53;20985;-71
2022/11/17 06:20:58;;;;;;;1.02;0.30;;;16.60;73.50;;;;;;2360794;53;21475;-73
2022/11/17 06:23:25;;;;;;;2.53;0.60;;;16.60;73.60;;;;;;2611653;52;20938;-72
2022/11/17 06:25:52;;;;;;;2.30;0.50;;;16.60;73.50;;;;;;2611752;52;21905;-74
2022/11/17 06:28:18;;;;;;;2.47;0.47;;;16.60;73.60;;;;;;2360703;53;21545;-75
2022/11/17 06:30:45;;;;;;;1.30;0.50;;;16.60;73.60;;;;;;2359922;53;20954;-75
2022/11/17 06:33:13;;;;;;;1.02;0.40;;;16.60;73.60;;;;;;2360665;53;21040;-72
2022/11/17 06:35:39;;;;;;;1.65;0.22;;;16.60;73.50;;;;;;2360292;53;21425;-74
2022/11/17 06:38:06;;;;;;;1.75;0.40;;;16.60;73.50;;;;;;2360455;53;21423;-71
2022/11/17 06:40:32;;;;;;;2.10;0.62;;;16.60;73.50;;;;;;2361379;52;21874;-73
2022/11/17 06:43:08;;;;;;;1.62;0.45;;;16.60;73.50;;;;;;2368508;52;20965;-73
2022/11/17 06:45:36;;;;;;;1.60;0.40;;;16.60;73.60;;;;;;2602145;52;20947;-74
2022/11/17 06:48:03;;;;;;;2.65;0.60;;;16.60;73.40;;;;;;2360590;53;21779;-72
2022/11/17 06:50:29;;;;;;;3.12;0.80;;;16.60;73.50;;;;;;2522457;52;21400;-74
2022/11/17 06:52:59;;;;;;;3.47;0.75;;;16.50;73.40;;;;;;2358991;53;20922;-72
2022/11/17 06:55:26;;;;;;;1.48;0.37;;;16.60;73.40;;;;;;2608892;52;20938;-74
2022/11/17 06:57:58;;;;;;;2.20;0.50;;;16.60;73.50;;;;;;2360822;53;21264;-71
2022/11/17 07:00:25;;;;;;;1.60;0.43;;;16.60;73.10;;;;;;2612297;52;21309;-73
2022/11/17 07:02:51;;;;;;;2.00;0.40;;;16.60;73.30;;;;;;2360779;53;21069;-72
2022/11/17 07:05:18;;;;;;;1.33;0.47;;;16.60;73.30;;;;;;2547493;52;21249;-74
2022/11/17 07:07:44;;;;;;;1.15;0.43;;;16.60;73.30;;;;;;2360295;53;20942;-71
2022/11/17 07:10:11;;;;;;;1.58;0.40;;;16.60;73.30;;;;;;2612208;52;20928;-74
2022/11/17 07:12:37;;;;;;;3.40;0.50;;;16.60;73.30;;;;;;2360459;53;20899;-71
2022/11/17 07:15:04;;;;;;;1.52;0.50;;;16.60;73.20;;;;;;2429902;52;21467;-73
2022/11/17 07:17:31;;;;;;;1.42;0.40;;;16.60;73.10;;;;;;2612040;52;21450;-71
2022/11/17 07:19:58;;;;;;;2.03;0.37;;;16.60;73.10;;;;;;2612277;52;21708;-73
2022/11/17 07:22:25;;;;;;;1.15;0.40;;;16.50;73.00;;;;;;2360374;53;21580;-72
2022/11/17 07:24:51;;;;;;;1.37;0.32;;;16.50;73.00;;;;;;2437450;52;21120;-71
2022/11/17 07:27:36;;;;;;;2.67;0.82;;;16.50;73.10;;;;;;2360782;53;20938;-70
2022/11/17 07:30:03;;;;;;;1.55;0.32;;;16.50;72.00;;;;;;2612405;52;20934;-72
2022/11/17 07:32:32;;;;;;;0.75;0.20;;;16.50;73.00;;;;;;2360892;53;20994;-74
2022/11/17 07:35:00;;;;;;;1.65;0.40;;;16.50;72.90;;;;;;2586667;52;21403;-72
2022/11/17 07:37:32;;;;;;;1.92;0.40;;;16.50;73.00;;;;;;2612192;52;21455;-74
2022/11/17 07:39:59;;;;;;;2.58;0.65;;;16.40;72.60;;;;;;2477770;52;21419;-71
2022/11/17 07:42:25;;;;;;;1.33;0.35;;;16.40;73.50;;;;;;2360574;53;20942;-72
2022/11/17 07:44:52;;;;;;;1.25;0.22;;;16.40;72.90;;;;;;2360686;53;20962;-71
2022/11/17 07:47:18;;;;;;;2.42;0.40;;;16.40;72.80;;;;;;2443341;52;20935;-71
2022/11/17 07:49:45;;;;;;;0.85;0.22;;;16.40;72.80;;;;;;2360295;53;21959;-72
2022/11/17 07:52:11;;;;;;;1.73;0.20;;;16.40;72.80;;;;;;2454127;52;20939;-70
2022/11/17 07:54:38;;;;;;;1.30;0.22;;;16.30;72.70;;;;;;2612308;52;21557;-73
2022/11/17 07:57:04;;;;;;;0.98;0.22;;;16.30;72.70;;;;;;2612014;52;21568;-73
2022/11/17 07:59:31;;;;;;;1.90;0.28;;;16.30;72.80;;;;;;2419759;52;20926;-72
2022/11/17 08:01:57;;;;;;;0.98;0.30;;;16.30;72.80;;;;;;2361404;53;21435;-74
2022/11/17 08:04:24;;;;;;;1.37;0.30;;;16.30;72.70;;;;;;2442480;52;21347;-71
2022/11/17 08:06:50;;;;;;;1.23;0.40;;;16.30;72.70;;;;;;2360663;53;21787;-71
2022/11/17 08:09:17;;;;;;;1.42;0.30;;;16.30;72.70;;;;;;2394096;52;21432;-72
2022/11/17 08:11:43;;;;;;;1.17;0.40;;;16.30;72.70;;;;;;2359744;53;21025;-74
2022/11/17 08:14:10;;;;;;;0.95;0.20;;;16.20;72.50;;;;;;2360633;53;21464;-73
2022/11/17 08:16:36;;;;;;;0.85;0.25;;;16.30;72.70;;;;;;2360408;53;20998;-73
2022/11/17 08:19:04;;;;;;;1.37;0.30;;;16.30;72.60;;;;;;2360781;53;21419;-72
2022/11/17 08:21:31;;;;;;;1.27;0.40;;;16.20;72.50;;;;;;2360688;53;20973;-73
2022/11/17 08:23:59;;;;;;;2.17;0.55;;;16.20;72.50;;;;;;2612172;52;21407;-72
2022/11/17 08:26:25;;;;;;;1.85;0.45;;;16.20;72.40;;;;;;2360750;53;21324;-72
2022/11/17 08:28:52;;;;;;;1.12;0.30;;;16.20;72.40;;;;;;2469108;52;20930;-72
2022/11/17 08:31:22;;;;;;;0.93;0.30;;;16.20;72.40;;;;;;2360262;53;21086;-71
2022/11/17 08:33:49;;;;;;;2.10;0.35;;;16.20;72.40;;;;;;2546223;52;20946;-74
2022/11/17 08:36:16;;;;;;;1.85;0.40;;;16.20;72.40;;;;;;2359957;53;20922;-73
2022/11/17 08:38:42;;;;;;;1.35;0.50;;;16.20;72.40;;;;;;2612023;52;20934;-72
2022/11/17 08:41:09;;;;;;;1.10;0.40;;;16.20;72.40;;;;;;2360720;53;20965;-73
2022/11/17 08:43:36;;;;;;;1.95;0.50;;;16.20;72.40;;;;;;2612074;52;20930;-73
2022/11/17 08:46:02;;;;;;;2.00;0.40;;;16.20;72.40;;;;;;2360299;53;20969;-72
2022/11/17 08:48:30;;;;;;;2.92;0.50;;;16.20;72.40;;;;;;2611610;52;20922;-70
2022/11/17 08:50:56;;;;;;;2.67;0.40;;;16.20;72.40;;;;;;2360198;53;20905;-71
2022/11/17 08:53:22;;;;;;;4.07;1.52;;;16.20;72.30;;;;;;2612248;52;20962;-71
2022/11/17 08:55:50;;;;;;;3.60;1.10;;;16.20;72.30;;;;;;2359817;53;20922;-71
2022/11/17 08:58:17;;;;;;;4.93;1.83;;;16.20;72.20;;;;;;2611431;52;20927;-71
2022/11/17 09:00:45;;;;;;;5.72;1.75;;;16.20;72.10;;;;;;2359835;53;20946;-72
2022/11/17 09:03:12;;;;;;;7.05;2.75;;;16.10;72.00;;;;;;2611546;52;21875;-73
2022/11/17 09:05:39;;;;;;;7.12;3.37;;;16.10;72.00;;;;;;2359581;53;21543;-71
2022/11/17 09:08:05;;;;;;;6.18;2.97;;;16.10;71.90;;;;;;2611911;52;21451;-71
2022/11/17 09:10:50;;;;;;;;;;;16.10;71.90;;;;;;2363810;53;21351;-72
2022/11/17 09:13:22;;;;;;;5.90;2.45;;;16.20;70.50;;;;;;2396132;52;20103;-74
2022/11/17 09:15:49;;;;;;;6.78;1.92;;;16.10;71.50;;;;;;2360068;53;20922;-74
2022/11/17 09:18:15;;;;;;;4.62;2.10;;;16.10;71.90;;;;;;2360612;53;21447;-72
2022/11/17 09:20:42;;;;;;;5.35;1.65;;;16.10;71.90;;;;;;2458465;52;20938;-73
2022/11/17 09:23:11;;;;;;;7.00;2.30;;;16.10;71.70;;;;;;2367806;52;20962;-72
2022/11/17 09:25:37;;;;;;;4.00;1.30;;;16.00;71.60;;;;;;2360785;53;20938;-72
2022/11/17 09:28:04;;;;;;;3.95;1.12;;;16.00;71.70;;;;;;2612290;52;21483;-73
2022/11/17 09:30:30;;;;;;;5.62;1.30;;;16.10;71.70;;;;;;2592293;52;21495;-71
2022/11/17 09:32:57;;;;;;;3.45;1.10;;;16.10;71.70;;;;;;2360602;53;21467;-71
2022/11/17 09:35:23;;;;;;;4.28;0.88;;;16.00;71.60;;;;;;2360906;53;20950;-69
2022/11/17 09:37:49;;;;;;;4.97;1.02;;;16.00;71.70;;;;;;2360521;53;20966;-72
2022/11/17 09:40:17;;;;;;;3.70;1.23;;;16.00;71.70;;;;;;2359541;53;20942;-71
2022/11/17 09:42:44;;;;;;;4.62;1.50;;;16.00;71.60;;;;;;2360075;53;20906;-72
2022/11/17 09:45:21;;;;;;;4.18;1.40;;;16.00;71.80;;;;;;2471356;52;21995;-72
2022/11/17 09:48:17;;;;;;;2.72;0.90;;;16.00;71.40;;;;;;2404774;52;21938;-71
2022/11/17 09:51:06;;;;;;;4.45;0.95;;;16.10;70.80;;;;;;2360598;53;21093;-74
2022/11/17 09:55:25;;;;;;;2.80;0.90;;;16.00;72.00;;;;;;2360050;53;21489;-72
2022/11/17 09:58:16;;;;;;;7.35;1.30;;;16.00;70.60;;;;;;2360204;53;20946;-74
2022/11/17 10:00:43;;;;;;;3.95;1.40;;;16.10;71.90;;;;;;2333263;53;20996;-70
2022/11/17 10:03:14;;;;;;;4.25;1.30;;;16.00;72.10;;;;;;2361105;53;21433;-71
2022/11/17 10:05:41;;;;;;;6.62;1.80;;;16.00;72.00;;;;;;2332994;53;21581;-70
2022/11/17 10:08:09;;;;;;;6.03;2.20;;;16.10;72.20;;;;;;2332901;53;21067;-74
2022/11/17 10:10:47;;;;;;;6.20;1.62;;;16.00;72.10;;;;;;2578105;52;20964;-70
2022/11/17 10:13:30;;;;;;;7.43;1.90;;;16.10;71.80;;;;;;2333109;53;21244;-74
2022/11/17 10:15:58;;;;;;;4.95;1.50;;;16.10;71.50;;;;;;2332785;53;20974;-72
2022/11/17 10:18:25;;;;;;;5.93;1.45;;;16.00;72.30;;;;;;2333538;53;21490;-71
2022/11/17 10:20:51;;;;;;;5.87;2.00;;;16.10;72.50;;;;;;2333533;53;21253;-73
2022/11/17 10:23:18;;;;;;;5.93;1.60;;;16.10;72.50;;;;;;2333271;53;20957;-69
2022/11/17 10:25:46;;;;;;;4.30;1.17;;;16.10;72.50;;;;;;2333264;54;21316;-69
2022/11/17 10:28:26;;;;;;;5.75;1.30;;;16.10;72.50;;;;;;2585667;52;22032;-72
2022/11/17 10:31:03;;;;;;;2.78;0.80;;;16.10;71.80;;;;;;2333150;53;21003;-73
2022/11/17 10:34:02;;;;;;;4.28;0.80;;;16.00;72.50;;;;;;2504777;52;20968;-72
2022/11/17 10:36:29;;;;;;;3.25;0.80;;;16.10;71.30;;;;;;2335781;53;20964;-71
2022/11/17 10:38:57;;;;;;;2.83;0.68;;;16.10;72.70;;;;;;2360842;53;20922;-72
2022/11/17 10:41:38;;;;;;;3.08;0.90;;;16.10;72.70;;;;;;2361148;53;21297;-72
2022/11/17 10:44:27;;;;;;;4.82;1.00;;;16.10;72.80;;;;;;2360930;53;20970;-72
2022/11/17 10:46:57;;;;;;;4.18;1.02;;;16.10;72.10;;;;;;2360948;53;20942;-72
2022/11/17 10:49:33;;;;;;;2.75;0.93;;;16.10;73.40;;;;;;2361119;53;21026;-71
2022/11/17 10:52:23;;;;;;;5.53;1.12;;;16.10;73.60;;;;;;2341797;53;21526;-74
2022/11/17 10:54:49;;;;;;;4.93;1.00;;;16.20;73.30;;;;;;2360810;53;20930;-72
2022/11/17 10:57:18;;;;;;;3.80;1.27;;;16.20;73.80;;;;;;2363686;53;21057;-72
2022/11/17 10:59:52;;;;;;;6.50;1.48;;;16.30;73.90;;;;;;2363342;53;21490;-74
2022/11/17 11:02:35;;;;;;;3.55;0.90;;;16.30;74.10;;;;;;2363041;53;20938;-74
2022/11/17 11:05:17;;;;;;;5.68;1.27;;;16.30;73.50;;;;;;2362513;53;20946;-74
2022/11/17 11:07:44;;;;;;;6.45;1.23;;;16.40;73.60;;;;;;2615098;52;21002;-72
2022/11/17 11:10:18;;;;;;;3.87;1.17;;;16.50;74.60;;;;;;2366033;52;21259;-71
2022/11/17 11:13:34;;;;;;;4.97;0.93;;;16.50;74.20;;;;;;2366304;53;21073;-72
2022/11/17 11:16:01;;;;;;;4.43;1.50;;;16.60;72.80;;;;;;2592912;52;20922;-73
2022/11/17 11:18:28;;;;;;;8.23;1.58;;;16.60;74.40;;;;;;2363374;53;20966;-71
2022/11/17 11:21:15;;;;;;;5.95;1.15;;;16.70;74.30;;;;;;2363536;53;20943;-71
2022/11/17 11:23:51;;;;;;;5.43;1.40;;;16.70;73.00;;;;;;2468762;52;20906;-71
2022/11/17 11:27:54;;;;;;;3.47;0.88;;;16.70;73.50;;;;;;2363622;53;20919;-72
2022/11/17 11:30:20;;;;;;;3.42;0.85;;;16.80;72.10;;;;;;2361179;53;20927;-71
2022/11/17 11:33:28;;;;;;;6.22;0.90;;;16.90;74.00;;;;;;2361464;53;20914;-72
2022/11/17 11:38:04;;;;;;;6.43;1.12;;;16.80;72.50;;;;;;2360645;53;20935;-70
2022/11/17 11:40:34;;;;;;;6.47;1.20;;;16.90;72.80;;;;;;2360343;53;21541;-72
2022/11/17 11:46:05;;;;;;;5.10;1.70;;;16.90;73.80;;;;;;2359736;53;21068;-71
2022/11/17 11:48:32;;;;;;;4.93;1.10;;;17.00;72.10;;;;;;2612548;52;21345;-74
2022/11/17 11:51:24;;;;;;;5.28;1.00;;;17.00;73.80;;;;;;2437512;52;21005;-74
2022/11/17 11:54:01;;;;;;;7.32;1.40;;;17.00;72.10;;;;;;2612403;52;21502;-73
2022/11/17 11:56:38;;;;;;;6.53;1.12;;;17.00;73.40;;;;;;2360830;53;21049;-71
2022/11/17 12:00:34;;;;;;;5.80;1.20;;;17.00;72.90;;;;;;2388237;52;20919;-72
2022/11/17 12:03:12;;;;;;;5.50;1.17;;;17.00;71.70;;;;;;2361191;53;20922;-74
2022/11/17 12:08:41;;;;;;;5.57;1.00;;;17.00;72.80;;;;;;2360886;53;20954;-72
2022/11/17 12:13:56;;;;;;;6.70;1.20;;;17.10;73.20;;;;;;2361088;53;21045;-72
2022/11/17 12:16:43;;;;;;;5.90;0.90;;;17.10;73.50;;;;;;2470404;52;20939;-74
2022/11/17 12:22:59;;;;;;;8.30;1.62;;;17.10;72.80;;;;;;2360884;53;21077;-71
2022/11/17 12:25:27;;;;;;;3.15;0.55;;;17.10;72.30;;;;;;2360717;53;20926;-71
2022/11/17 12:27:54;;;;;;;7.28;1.20;;;17.20;73.80;;;;;;2360611;53;21061;-72
2022/11/17 12:32:35;;;;;;;6.50;1.15;;;17.20;74.00;;;;;;2360445;53;21491;-73
2022/11/17 12:37:11;;;;;;;5.32;1.00;;;17.30;72.30;;;;;;2361088;53;20942;-72
2022/11/17 12:40:00;;;;;;;3.12;0.80;;;17.30;72.10;;;;;;2360860;53;20957;-74
2022/11/17 12:42:27;;;;;;;6.80;0.98;;;17.30;72.40;;;;;;2361145;53;20926;-71
2022/11/17 12:45:12;;;;;;;5.75;0.90;;;17.30;73.60;;;;;;2416168;52;21249;-71
2022/11/17 12:47:45;;;;;;;6.40;1.50;;;17.40;73.00;;;;;;2341303;53;20942;-72
2022/11/17 12:50:25;;;;;;;3.92;0.82;;;17.40;73.20;;;;;;2461740;52;20959;-72
2022/11/17 12:53:18;;;;;;;6.22;1.05;;;17.40;72.70;;;;;;2360671;53;20926;-72
2022/11/17 12:56:03;;;;;;;;;;;17.40;71.40;;;;;;2477767;52;21313;-71
2022/11/17 13:00:04;;;;;;;3.55;0.75;;;17.40;71.20;;;;;;2593632;52;20073;-71
2022/11/17 13:02:45;;;;;;;4.37;0.75;;;17.40;71.10;;;;;;2446448;52;21447;-74
2022/11/17 13:05:18;;;;;;;4.93;0.90;;;17.40;72.80;;;;;;2360412;53;21439;-71
2022/11/17 13:07:45;;;;;;;6.85;1.17;;;17.40;72.70;;;;;;2532738;52;20977;-72
2022/11/17 13:12:48;;;;;;;4.15;0.95;;;17.40;73.10;;;;;;2361311;53;20910;-72
2022/11/17 13:15:21;;;;;;;5.28;1.00;;;17.40;71.30;;;;;;2414222;52;20933;-70
2022/11/17 13:17:49;;;;;;;4.05;1.00;;;17.50;73.00;;;;;;2359593;53;20930;-72
2022/11/17 13:20:29;;;;;;;8.45;1.60;;;17.50;73.50;;;;;;2580208;52;20973;-72
2022/11/17 13:23:17;;;;;;;4.62;0.88;;;17.50;72.60;;;;;;2360594;53;20986;-72
2022/11/17 13:25:43;;;;;;;5.53;1.58;;;17.50;72.60;;;;;;2611912;52;21530;-72
2022/11/17 13:28:29;;;;;;;6.60;1.40;;;17.50;73.50;;;;;;2379443;52;20958;-72
2022/11/17 13:30:59;;;;;;;7.72;1.70;;;17.60;72.10;;;;;;2529926;52;20965;-71
2022/11/17 13:33:26;;;;;;;6.87;0.98;;;17.60;73.20;;;;;;2361541;53;20941;-71
2022/11/17 13:36:18;;;;;;;5.87;1.08;;;17.60;73.40;;;;;;2424006;52;20993;-73
2022/11/17 13:38:51;;;;;;;6.72;0.93;;;17.60;71.50;;;;;;2349966;53;21978;-71
2022/11/17 13:41:18;;;;;;;6.18;1.35;;;17.70;72.90;;;;;;2392571;53;20946;-72
2022/11/17 13:43:45;;;;;;;2.47;0.73;;;17.70;73.30;;;;;;2411863;53;21069;-72
2022/11/17 13:46:11;;;;;;;5.82;1.05;;;17.70;73.30;;;;;;2342352;53;20973;-72
2022/11/17 13:48:39;;;;;;;10.30;2.10;;;17.70;73.20;;;;;;2361163;53;21077;-70
2022/11/17 13:51:37;;;;;;;6.50;1.25;;;17.70;73.00;;;;;;2612843;52;21978;-72
2022/11/17 13:54:16;;;;;;;8.90;1.40;;;17.80;71.50;;;;;;2361223;53;20926;-72
2022/11/17 13:57:04;;;;;;;5.10;1.20;;;17.90;72.30;;;;;;2416952;52;21457;-70
2022/11/17 13:59:35;;;;;;;5.60;1.00;;;17.80;71.20;;;;;;2360364;53;21696;-72
2022/11/17 14:05:33;;;;;;;7.65;1.33;;;17.80;72.70;;;;;;2543297;52;20950;-73
2022/11/17 14:08:21;;;;;;;5.10;1.00;;;17.90;71.00;;;;;;2360980;53;21061;-72
2022/11/17 14:10:48;;;;;;;6.57;1.20;;;18.00;71.90;;;;;;2612433;52;20946;-71
2022/11/17 14:13:20;;;;;;;5.40;1.23;;;17.90;72.90;;;;;;2360574;53;21506;-72
2022/11/17 14:15:55;;;;;;;3.12;0.60;;;17.90;72.40;;;;;;2612517;52;21226;-71
2022/11/17 14:18:37;;;;;;;5.32;1.15;;;17.90;72.00;;;;;;2364044;53;21005;-71
2022/11/17 14:21:13;;;;;;;4.45;0.98;;;17.90;71.40;;;;;;2612468;52;20926;-74
2022/11/17 14:23:40;;;;;;;4.50;1.00;;;17.90;72.30;;;;;;2360688;53;20934;-72
2022/11/17 14:26:16;;;;;;;4.62;1.00;;;17.90;72.70;;;;;;2612366;52;20958;-71
2022/11/17 14:28:42;;;;;;;8.82;1.10;;;17.90;71.80;;;;;;2360836;53;21963;-73